Time;durP1;ratioP1;P1;durP2;ratioP2;P2;SDS_P1;SDS_P2;PMS_P1;PMS_P2;Temp;Humidity;BMP_temperature;BMP_pressure;BME280_temperature;BME280_humidity;BME280_pressure;Samples;Min_cycle;Max_cycle;Signal;HPM_P1;HPM_P2
2022/06/05 00:01:11;;;;;;;17.82;15.98;;;;;;;17.82;58.46;99862.41;1603311;87;21973;-73
2022/06/05 00:04:00;;;;;;;8.20;7.35;;;;;;;17.81;58.56;99856.70;1620281;88;21034;-71
2022/06/05 00:06:41;;;;;;;8.88;7.40;;;;;;;17.78;58.79;99859.48;1599439;88;21108;-71
2022/06/05 00:09:26;;;;;;;8.23;7.05;;;;;;;17.77;58.75;99859.22;1633709;87;21094;-71
2022/06/05 00:11:57;;;;;;;10.50;6.80;;;;;;;17.78;58.94;99854.04;1622694;87;21051;-72
2022/06/05 00:14:24;;;;;;;8.85;7.70;;;;;;;17.79;59.03;99845.33;1618826;88;21161;-69
2022/06/05 00:16:51;;;;;;;10.80;6.33;;;;;;;17.78;59.09;99845.88;1618548;88;20983;-73
2022/06/05 00:19:19;;;;;;;7.50;6.40;;;;;;;17.80;59.46;99846.92;1631044;88;21291;-72
2022/06/05 00:21:45;;;;;;;10.05;6.92;;;;;;;17.74;59.86;99845.39;1629822;86;21017;-71
2022/06/05 00:24:12;;;;;;;7.53;6.78;;;;;;;17.66;60.21;99854.19;1614772;87;21571;-75
2022/06/05 00:26:51;;;;;;;9.85;7.28;;;;;;;17.58;60.32;99862.44;1618128;88;21274;-72
2022/06/05 00:29:49;;;;;;;5.72;5.10;;;;;;;17.52;60.92;99868.22;1602083;87;21584;-70
2022/06/05 00:32:37;;;;;;;6.53;5.72;;;;;;;17.43;62.38;99862.07;1592699;90;21076;-69
2022/06/05 00:35:09;;;;;;;6.00;5.40;;;;;;;17.33;63.33;99849.14;1588266;90;21073;-70
2022/06/05 00:38:06;;;;;;;6.67;5.65;;;;;;;17.24;64.07;99839.46;1578805;88;21546;-69
2022/06/05 00:41:05;;;;;;;7.55;6.10;;;;;;;17.18;64.54;99840.61;1606670;88;21115;-79
2022/06/05 00:43:31;;;;;;;5.60;4.90;;;;;;;17.12;64.99;99827.39;1629708;88;21022;-81
2022/06/05 00:45:58;;;;;;;6.03;5.45;;;;;;;17.05;64.74;99828.27;1648615;84;21666;-83
2022/06/05 00:48:25;;;;;;;6.40;5.70;;;;;;;17.00;63.67;99815.55;1662120;86;21003;-75
2022/06/05 00:50:52;;;;;;;8.03;6.17;;;;;;;17.04;63.61;99819.31;1662037;86;21042;-77
2022/06/05 00:53:20;;;;;;;10.72;7.72;;;;;;;17.05;63.31;99819.58;1661572;84;21776;-75
2022/06/05 00:55:50;;;;;;;7.72;6.90;;;;;;;17.03;63.31;99815.52;1664238;84;21062;-75
2022/06/05 00:58:17;;;;;;;7.58;5.25;;;;;;;17.01;62.68;99813.10;1662106;86;21527;-73
2022/06/05 01:00:52;;;;;;;5.33;4.78;;;;;;;17.05;62.16;99813.33;1657781;84;21032;-72
2022/06/05 01:03:19;;;;;;;5.60;4.62;;;;;;;17.10;61.40;99810.00;1637379;87;21062;-75
2022/06/05 01:05:46;;;;;;;4.60;4.20;;;;;;;17.15;60.60;99818.09;1637274;87;21140;-74
2022/06/05 01:08:13;;;;;;;8.20;4.55;;;;;;;17.21;60.08;99812.06;1645848;84;20990;-73
2022/06/05 01:10:57;;;;;;;5.75;3.95;;;;;;;17.26;59.67;99812.81;1661027;86;21117;-74
2022/06/05 01:13:59;;;;;;;3.27;2.98;;;;;;;17.31;59.37;99803.20;1646319;84;22255;-74
2022/06/05 01:16:47;;;;;;;13.75;4.95;;;;;;;17.35;58.96;99809.70;1645174;84;21024;-72
2022/06/05 01:19:43;;;;;;;4.78;4.10;;;;;;;17.38;58.87;99795.52;1662395;86;21251;-78
2022/06/05 01:22:45;;;;;;;4.17;3.87;;;;;;;17.41;58.72;99802.27;1662046;84;20938;-73
2022/06/05 01:25:36;;;;;;;5.67;4.28;;;;;;;17.43;58.65;99809.05;1662752;86;20962;-73
2022/06/05 01:28:08;;;;;;;10.55;4.62;;;;;;;17.43;58.58;99807.69;1662477;86;21074;-72
2022/06/05 01:30:44;;;;;;;9.40;4.92;;;;;;;17.44;58.54;99804.42;1662746;86;21049;-72
2022/06/05 01:33:23;;;;;;;4.03;3.65;;;;;;;17.46;58.65;99803.55;1661994;84;21160;-75
2022/06/05 01:35:56;;;;;;;8.23;4.50;;;;;;;17.46;58.52;99800.84;1637488;84;21044;-74
2022/06/05 01:38:30;;;;;;;7.35;4.62;;;;;;;17.48;58.33;99799.20;1661896;84;21035;-73
2022/06/05 01:41:02;;;;;;;4.17;3.75;;;;;;;17.49;58.34;99799.46;1662336;86;21034;-72
2022/06/05 01:43:36;;;;;;;4.60;3.60;;;;;;;17.49;58.45;99799.46;1662252;86;21026;-72
2022/06/05 01:46:15;;;;;;;5.12;4.42;;;;;;;17.49;58.56;99808.98;1662753;84;21282;-76
2022/06/05 01:48:56;;;;;;;8.18;5.17;;;;;;;17.47;58.62;99810.63;1635532;87;20927;-73
2022/06/05 01:51:33;;;;;;;4.70;4.03;;;;;;;17.44;58.74;99813.94;1635076;87;21534;-73
2022/06/05 01:54:04;;;;;;;6.62;5.35;;;;;;;17.45;58.84;99814.20;1654384;84;21031;-72
2022/06/05 01:56:39;;;;;;;10.18;5.03;;;;;;;17.44;58.78;99816.11;1648129;84;21262;-72
2022/06/05 01:59:14;;;;;;;5.33;4.83;;;;;;;17.46;58.83;99818.52;1661958;84;21407;-75
2022/06/05 02:01:45;;;;;;;9.43;6.10;;;;;;;17.48;58.95;99819.59;1641016;86;21050;-73
2022/06/05 02:04:29;;;;;;;7.00;4.65;;;;;;;17.44;58.93;99813.94;1662451;86;21061;-74
2022/06/05 02:07:19;;;;;;;6.05;5.45;;;;;;;17.45;58.90;99821.00;1654057;84;20966;-71
2022/06/05 02:09:58;;;;;;;5.45;4.28;;;;;;;17.47;58.92;99814.70;1662576;86;21022;-70
2022/06/05 02:12:24;;;;;;;9.40;4.40;;;;;;;17.47;59.07;99817.97;1662071;86;22169;-72
2022/06/05 02:14:51;;;;;;;6.80;4.97;;;;;;;17.45;59.12;99819.64;1662152;86;21010;-71
2022/06/05 02:17:18;;;;;;;5.47;4.92;;;;;;;17.47;59.21;99813.89;1659700;84;21010;-72
2022/06/05 02:19:44;;;;;;;4.55;3.92;;;;;;;17.47;59.03;99812.53;1662229;86;21037;-72
2022/06/05 02:22:23;;;;;;;4.70;4.28;;;;;;;17.47;58.88;99809.81;1661704;84;21129;-72
2022/06/05 02:24:50;;;;;;;4.33;3.58;;;;;;;17.48;58.67;99806.00;1641626;86;21200;-72
2022/06/05 02:27:23;;;;;;;4.58;4.03;;;;;;;17.50;58.55;99805.98;1662121;86;21089;-73
2022/06/05 02:29:51;;;;;;;6.05;3.12;;;;;;;17.51;58.54;99810.84;1639079;86;21052;-72
2022/06/05 02:32:48;;;;;;;3.50;3.10;;;;;;;17.52;58.47;99813.82;1662202;84;21027;-73
2022/06/05 02:35:49;;;;;;;5.08;2.55;;;;;;;17.53;58.29;99798.58;1662420;84;20990;-73
2022/06/05 02:38:24;;;;;;;3.08;2.77;;;;;;;17.56;58.16;99795.27;1661730;84;22003;-74
2022/06/05 02:41:02;;;;;;;5.53;3.33;;;;;;;17.58;58.06;99795.80;1660915;86;21110;-73
2022/06/05 02:44:31;;;;;;;4.22;3.30;;;;;;;17.57;58.01;99792.00;1660530;86;21542;-74
2022/06/05 02:47:17;;;;;;;3.80;3.33;;;;;;;17.56;58.17;99790.38;1659735;86;21031;-74
2022/06/05 02:50:15;;;;;;;8.70;4.72;;;;;;;17.55;59.17;99791.50;1660820;86;21030;-74
2022/06/05 02:52:42;;;;;;;8.90;4.15;;;;;;;17.49;60.20;99784.50;1661721;84;21284;-74
2022/06/05 02:55:15;;;;;;;4.53;3.52;;;;;;;17.41;61.18;99785.41;1630544;86;21653;-74
2022/06/05 02:57:43;;;;;;;4.87;4.37;;;;;;;17.38;61.35;99786.00;1619115;87;21047;-73
2022/06/05 03:00:15;;;;;;;8.40;4.05;;;;;;;17.36;61.24;99779.25;1630349;88;21024;-73
2022/06/05 03:05:28;;;;;;;4.50;4.10;;;;;;;17.37;60.98;99782.20;1614127;86;21178;-71
2022/06/05 03:07:56;;;;;;;4.17;3.15;;;;;;;17.34;60.76;99773.28;1629054;88;21591;-71
2022/06/05 03:10:23;;;;;;;5.28;3.25;;;;;;;17.35;60.49;99775.72;1630020;88;21570;-70
2022/06/05 03:12:50;;;;;;;4.28;3.50;;;;;;;17.33;60.43;99767.03;1632236;86;21041;-71
2022/06/05 03:15:17;;;;;;;4.42;3.30;;;;;;;17.31;60.53;99767.08;1663074;84;21095;-69
2022/06/05 03:17:46;;;;;;;6.95;3.62;;;;;;;17.30;60.52;99765.45;1620422;86;21044;-70
2022/06/05 03:20:14;;;;;;;5.12;4.15;;;;;;;17.30;60.46;99767.63;1662563;86;21047;-69
2022/06/05 03:22:41;;;;;;;4.67;3.67;;;;;;;17.32;60.42;99761.33;1662897;86;21121;-73
2022/06/05 03:25:09;;;;;;;5.92;4.67;;;;;;;17.32;60.39;99765.41;1671605;84;21049;-74
2022/06/05 03:27:36;;;;;;;5.00;3.45;;;;;;;17.34;60.26;99769.20;1652139;86;21061;-74
2022/06/05 03:30:03;;;;;;;6.90;4.05;;;;;;;17.37;60.31;99761.81;1660169;84;21479;-72
2022/06/05 03:32:30;;;;;;;4.72;4.00;;;;;;;17.36;60.31;99763.72;1627337;86;21033;-72
2022/06/05 03:34:57;;;;;;;8.35;4.42;;;;;;;17.38;60.31;99762.89;1640609;86;21032;-71
2022/06/05 03:37:23;;;;;;;5.28;4.05;;;;;;;17.41;60.22;99765.55;1661820;86;21003;-72
2022/06/05 03:39:50;;;;;;;6.50;3.72;;;;;;;17.44;60.24;99766.35;1661587;85;21093;-74
2022/06/05 03:42:16;;;;;;;5.72;4.20;;;;;;;17.45;60.19;99767.98;1638058;86;21161;-72
2022/06/05 03:44:43;;;;;;;7.20;4.30;;;;;;;17.49;60.15;99764.92;1637724;86;20988;-72
2022/06/05 03:47:12;;;;;;;6.95;4.28;;;;;;;17.51;60.22;99761.34;1667412;84;20991;-76
2022/06/05 03:49:39;;;;;;;8.28;4.10;;;;;;;17.52;60.21;99760.79;1632573;87;21182;-75
2022/06/05 03:52:08;;;;;;;5.08;4.65;;;;;;;17.53;60.06;99762.41;1664633;84;21069;-72
2022/06/05 03:54:34;;;;;;;11.05;5.87;;;;;;;17.56;60.04;99765.34;1667122;84;21104;-70
2022/06/05 03:57:02;;;;;;;6.00;5.12;;;;;;;17.61;59.95;99768.03;1673225;84;21522;-72
2022/06/05 03:59:29;;;;;;;6.22;5.62;;;;;;;17.64;59.85;99766.65;1633322;87;21533;-73
2022/06/05 04:01:56;;;;;;;4.92;4.53;;;;;;;17.67;59.91;99764.69;1639513;86;21523;-75
2022/06/05 04:04:23;;;;;;;5.78;4.87;;;;;;;17.69;59.89;99766.03;1663136;84;21037;-73
2022/06/05 04:06:49;;;;;;;5.20;4.70;;;;;;;17.70;60.01;99770.34;1626121;87;21879;-72
2022/06/05 04:09:16;;;;;;;7.25;4.67;;;;;;;17.73;60.13;99778.48;1628887;86;21656;-72
2022/06/05 04:11:43;;;;;;;5.72;5.22;;;;;;;17.74;60.07;99779.55;1656941;86;21523;-73
2022/06/05 04:14:10;;;;;;;4.70;4.33;;;;;;;17.77;59.87;99780.86;1635658;86;21122;-73
2022/06/05 04:16:41;;;;;;;5.45;4.55;;;;;;;17.82;59.56;99783.51;1633184;86;21076;-72
2022/06/05 04:19:07;;;;;;;4.33;3.92;;;;;;;17.84;59.29;99770.43;1613068;86;21165;-72
2022/06/05 04:21:36;;;;;;;5.22;4.25;;;;;;;17.88;59.23;99775.53;1648710;86;21012;-74
2022/06/05 04:24:04;;;;;;;4.85;4.33;;;;;;;17.90;59.03;99780.66;1621923;88;21040;-74
2022/06/05 04:26:34;;;;;;;5.62;4.80;;;;;;;17.92;58.79;99779.27;1588708;89;21113;-72
2022/06/05 04:29:01;;;;;;;7.00;4.15;;;;;;;17.95;58.94;99771.87;1632313;87;21035;-72
2022/06/05 04:31:32;;;;;;;4.40;3.83;;;;;;;18.00;58.97;99776.42;1631833;87;21800;-71
2022/06/05 04:34:02;;;;;;;5.72;3.83;;;;;;;18.05;58.88;99777.70;1593271;88;21099;-71
2022/06/05 04:36:29;;;;;;;7.50;4.60;;;;;;;18.09;58.84;99780.89;1579964;88;21394;-73
2022/06/05 04:38:56;;;;;;;5.85;4.90;;;;;;;18.16;58.58;99781.89;1595676;88;21037;-71
2022/06/05 04:41:28;;;;;;;5.28;3.87;;;;;;;18.21;58.48;99783.98;1595561;89;21076;-73
2022/06/05 04:43:53;;;;;;;4.30;3.90;;;;;;;18.25;58.36;99775.47;1594524;90;21167;-73
2022/06/05 04:46:21;;;;;;;4.67;3.80;;;;;;;18.28;58.26;99783.02;1595423;90;21625;-75
2022/06/05 04:48:47;;;;;;;5.72;2.70;;;;;;;18.33;58.07;99791.66;1598009;88;21049;-72
2022/06/05 04:51:15;;;;;;;4.97;3.67;;;;;;;18.36;57.93;99793.80;1574644;88;21146;-73
2022/06/05 04:53:42;;;;;;;3.87;2.95;;;;;;;18.39;57.81;99800.00;1574463;90;21041;-72
2022/06/05 04:56:15;;;;;;;5.35;3.45;;;;;;;18.42;57.71;99795.86;1593378;88;21310;-73
2022/06/05 04:58:42;;;;;;;3.72;3.40;;;;;;;18.44;57.27;99798.56;1570760;91;21044;-73
2022/06/05 05:01:14;;;;;;;2.90;2.70;;;;;;;18.46;57.09;99807.25;1570641;91;21231;-73
2022/06/05 05:03:41;;;;;;;;;;;;;;;18.48;57.03;99810.47;1572889;91;21565;-73
2022/06/05 05:06:11;;;;;;;8.45;2.85;;;;;;;18.52;57.06;99816.12;1595504;88;20210;-72
2022/06/05 05:08:38;;;;;;;3.83;2.45;;;;;;;18.54;57.28;99813.40;1595736;88;21152;-75
2022/06/05 05:11:06;;;;;;;4.20;3.35;;;;;;;18.60;57.16;99827.74;1571708;88;21113;-72
2022/06/05 05:13:33;;;;;;;3.17;2.87;;;;;;;18.65;56.67;99833.10;1589233;90;21612;-78
2022/06/05 05:15:59;;;;;;;5.67;3.17;;;;;;;18.69;56.37;99834.11;1593646;89;21058;-74
2022/06/05 05:18:27;;;;;;;5.03;3.20;;;;;;;18.73;56.34;99846.03;1593729;90;21069;-72
2022/06/05 05:20:53;;;;;;;2.55;2.35;;;;;;;18.80;57.07;99858.69;1566782;90;21133;-74
2022/06/05 05:23:20;;;;;;;4.05;2.77;;;;;;;18.90;57.32;99865.33;1619399;87;21060;-74
2022/06/05 05:25:47;;;;;;;5.12;3.10;;;;;;;18.95;57.41;99854.33;1617872;88;21066;-73
2022/06/05 05:28:15;;;;;;;6.92;4.20;;;;;;;19.03;57.53;99855.57;1593105;88;21097;-75
2022/06/05 05:30:45;;;;;;;4.58;4.10;;;;;;;19.02;58.29;99854.77;1593993;87;21054;-73
2022/06/05 05:33:13;;;;;;;4.90;3.40;;;;;;;19.01;58.44;99868.12;1592870;89;21318;-73
2022/06/05 05:35:40;;;;;;;3.37;2.90;;;;;;;19.04;57.20;99859.34;1566690;91;21605;-74
2022/06/05 05:38:06;;;;;;;6.70;2.83;;;;;;;19.05;56.50;99858.78;1591525;90;21027;-74
2022/06/05 05:43:18;;;;;;;3.77;2.50;;;;;;;19.11;56.92;99876.12;1592216;88;20962;-73
2022/06/05 05:45:49;;;;;;;2.60;2.40;;;;;;;19.19;56.14;99884.14;1584588;88;21717;-75
2022/06/05 05:48:16;;;;;;;9.13;3.00;;;;;;;19.30;57.16;99891.03;1591226;88;21543;-74
2022/06/05 05:50:45;;;;;;;3.85;3.40;;;;;;;19.36;56.63;99882.20;1593021;90;21038;-74
2022/06/05 05:53:11;;;;;;;8.58;2.98;;;;;;;19.36;57.18;99882.20;1593130;90;20987;-75
2022/06/05 05:55:39;;;;;;;5.05;3.20;;;;;;;19.38;57.25;99880.77;1592913;90;21070;-75
2022/06/05 05:58:05;;;;;;;3.55;3.15;;;;;;;19.43;56.76;99881.22;1593372;88;21154;-75
2022/06/05 06:00:33;;;;;;;3.22;2.85;;;;;;;19.48;56.40;99872.97;1595724;88;21100;-75
2022/06/05 06:03:00;;;;;;;2.80;2.58;;;;;;;19.54;55.90;99869.84;1592019;90;22207;-73
2022/06/05 06:05:26;;;;;;;4.15;2.42;;;;;;;19.63;55.58;99869.12;1609977;88;21074;-72
2022/06/05 06:07:55;;;;;;;2.95;2.65;;;;;;;19.68;54.50;99867.64;1593131;90;20998;-73
2022/06/05 06:10:21;;;;;;;3.02;2.75;;;;;;;19.71;54.89;99867.05;1592140;89;21808;-73
2022/06/05 06:12:48;;;;;;;4.53;2.92;;;;;;;19.66;54.85;99864.43;1656809;85;21007;-72
2022/06/05 06:15:16;;;;;;;5.30;2.85;;;;;;;19.65;55.45;99860.89;1663093;85;21049;-74
2022/06/05 06:17:43;;;;;;;5.37;2.50;;;;;;;19.63;55.70;99868.56;1637698;87;21022;-71
2022/06/05 06:20:12;;;;;;;2.80;2.52;;;;;;;19.65;55.64;99869.08;1637963;87;21571;-71
2022/06/05 06:22:41;;;;;;;6.45;5.15;;;;;;;19.67;56.11;99866.84;1625086;87;21078;-72
2022/06/05 06:25:09;;;;;;;3.83;3.02;;;;;;;19.72;55.95;99860.45;1637644;86;21417;-72
2022/06/05 06:27:35;;;;;;;10.48;3.52;;;;;;;19.72;55.32;99855.00;1620701;86;21569;-71
2022/06/05 06:30:05;;;;;;;6.97;3.30;;;;;;;19.71;55.61;99854.19;1638037;87;21111;-73
2022/06/05 06:32:31;;;;;;;3.87;3.40;;;;;;;19.74;55.57;99852.23;1637649;86;21502;-70
2022/06/05 06:34:58;;;;;;;5.85;4.70;;;;;;;19.76;55.21;99845.11;1604486;89;21993;-71
2022/06/05 06:37:25;;;;;;;5.87;4.03;;;;;;;19.77;54.41;99851.61;1637420;86;21026;-77
2022/06/05 06:39:51;;;;;;;6.67;4.35;;;;;;;19.79;54.52;99849.39;1647003;86;21044;-72
2022/06/05 06:42:18;;;;;;;10.88;4.05;;;;;;;19.83;54.58;99849.02;1632379;87;21031;-73
2022/06/05 06:44:47;;;;;;;4.00;3.70;;;;;;;19.84;54.91;99861.56;1648176;86;21037;-71
2022/06/05 06:47:13;;;;;;;5.50;5.00;;;;;;;19.74;55.36;99859.05;1637180;86;21098;-70
2022/06/05 06:49:41;;;;;;;4.03;3.50;;;;;;;19.77;55.81;99866.63;1605161;89;21035;-74
2022/06/05 06:52:09;;;;;;;4.08;2.50;;;;;;;19.83;56.58;99864.59;1637728;87;21176;-73
2022/06/05 06:54:35;;;;;;;3.58;2.30;;;;;;;19.84;55.75;99862.93;1628410;86;21007;-71
2022/06/05 06:57:04;;;;;;;2.90;2.22;;;;;;;19.80;55.17;99866.58;1580404;90;21194;-71
2022/06/05 06:59:31;;;;;;;3.72;3.10;;;;;;;19.77;54.94;99867.98;1567124;89;21165;-73
2022/06/05 07:01:57;;;;;;;2.37;2.20;;;;;;;19.79;54.55;99869.86;1636660;86;21135;-71
2022/06/05 07:04:26;;;;;;;6.12;3.10;;;;;;;19.80;53.63;99880.23;1605368;89;20920;-74
2022/06/05 07:06:53;;;;;;;3.30;2.40;;;;;;;19.80;53.64;99881.04;1611273;89;21048;-77
2022/06/05 07:09:19;;;;;;;8.43;5.37;;;;;;;19.79;53.89;99882.70;1605001;87;21594;-72
2022/06/05 07:11:46;;;;;;;5.62;3.70;;;;;;;19.78;54.06;99887.91;1587702;87;21332;-72
2022/06/05 07:14:16;;;;;;;4.15;3.47;;;;;;;19.76;53.95;99879.23;1599091;87;21146;-71
2022/06/05 07:16:42;;;;;;;2.98;2.77;;;;;;;19.77;53.64;99880.82;1592269;88;21037;-71
2022/06/05 07:19:09;;;;;;;2.90;2.55;;;;;;;19.70;54.09;99881.25;1621987;87;21134;-71
2022/06/05 07:21:36;;;;;;;4.47;2.70;;;;;;;19.68;54.38;99884.83;1622082;87;21521;-71
2022/06/05 07:24:04;;;;;;;3.27;2.98;;;;;;;19.70;54.64;99889.44;1595772;90;21185;-71
2022/06/05 07:26:32;;;;;;;4.25;2.90;;;;;;;19.75;54.72;99885.80;1620722;87;21010;-72
2022/06/05 07:29:00;;;;;;;10.35;2.65;;;;;;;19.76;55.79;99885.47;1595935;90;21081;-72
2022/06/05 07:31:29;;;;;;;5.28;2.40;;;;;;;19.73;56.42;99888.81;1599665;87;21043;-73
2022/06/05 07:33:57;;;;;;;4.62;2.85;;;;;;;19.67;57.26;99886.49;1595578;90;21526;-72
2022/06/05 07:36:25;;;;;;;9.70;3.00;;;;;;;19.61;58.10;99880.36;1622106;87;21300;-75
2022/06/05 07:38:52;;;;;;;3.00;2.67;;;;;;;19.53;58.48;99877.77;1598607;88;20986;-72
2022/06/05 07:41:29;;;;;;;3.25;2.37;;;;;;;19.45;58.92;99876.31;1620810;88;21004;-72
2022/06/05 07:43:56;;;;;;;3.75;2.95;;;;;;;19.33;59.77;99883.59;1620861;88;21019;-72
2022/06/05 07:46:23;;;;;;;6.67;3.15;;;;;;;19.22;60.41;99879.47;1595424;88;21061;-72
2022/06/05 07:48:49;;;;;;;4.00;2.75;;;;;;;19.20;60.93;99878.14;1621703;87;21209;-74
2022/06/05 07:54:27;;;;;;;3.45;3.15;;;;;;;19.12;62.13;99879.66;1598279;87;21057;-75
2022/06/05 07:56:56;;;;;;;3.60;3.30;;;;;;;19.00;63.17;99882.86;1622244;87;21062;-73
2022/06/05 07:59:25;;;;;;;3.10;2.58;;;;;;;18.91;63.66;99869.67;1595680;90;21551;-68
2022/06/05 08:01:52;;;;;;;4.78;4.25;;;;;;;18.87;64.29;99868.66;1622377;87;21160;-70
2022/06/05 08:04:19;;;;;;;4.10;3.42;;;;;;;18.85;64.42;99874.17;1621600;88;22052;-72
2022/06/05 08:06:47;;;;;;;3.80;3.50;;;;;;;18.80;64.81;99879.13;1620611;88;21532;-70
2022/06/05 08:09:14;;;;;;;4.70;3.10;;;;;;;18.72;65.33;99880.64;1620672;87;21158;-69
2022/06/05 08:11:45;;;;;;;3.25;2.98;;;;;;;18.67;67.21;99888.09;1579007;88;21542;-67
2022/06/05 08:14:11;;;;;;;3.65;3.35;;;;;;;18.68;68.09;99887.80;1591852;88;21382;-69
2022/06/05 08:16:43;;;;;;;7.05;4.37;;;;;;;18.70;68.90;99894.32;1618339;88;20967;-69
2022/06/05 08:19:13;;;;;;;2.95;2.75;;;;;;;18.61;70.32;99892.00;1618253;88;21081;-69
2022/06/05 08:21:41;;;;;;;3.90;3.40;;;;;;;18.48;70.47;99888.64;1628479;88;21009;-75
2022/06/05 08:24:08;;;;;;;3.27;2.90;;;;;;;18.43;71.62;99888.73;1605993;88;21029;-70
2022/06/05 08:26:35;;;;;;;4.65;3.40;;;;;;;18.35;71.43;99879.87;1612838;86;21161;-69
2022/06/05 08:29:03;;;;;;;5.28;3.40;;;;;;;18.27;72.64;99878.06;1584006;88;21631;-70
2022/06/05 08:31:30;;;;;;;4.72;3.22;;;;;;;18.25;72.66;99878.93;1590308;90;21047;-69
2022/06/05 08:33:58;;;;;;;3.42;2.70;;;;;;;18.22;73.44;99874.64;1590115;89;21137;-70
2022/06/05 08:36:25;;;;;;;5.30;3.25;;;;;;;18.20;72.74;99867.30;1590335;90;21126;-71
2022/06/05 08:42:08;;;;;;;3.47;3.08;;;;;;;18.28;72.15;99884.33;1661244;84;20981;-72
2022/06/05 08:45:07;;;;;;;3.33;2.80;;;;;;;18.33;72.95;99877.44;1629578;88;20993;-69
2022/06/05 08:47:53;;;;;;;2.77;2.12;;;;;;;18.37;71.22;99862.70;1618134;88;21540;-70
2022/06/05 08:50:40;;;;;;;4.05;3.10;;;;;;;18.46;71.24;99869.90;1622571;87;21061;-70
2022/06/05 08:53:23;;;;;;;4.45;2.75;;;;;;;18.52;70.15;99867.88;1619640;87;21436;-71
2022/06/05 08:55:53;;;;;;;3.65;3.22;;;;;;;18.57;70.18;99864.55;1613672;87;21034;-69
2022/06/05 08:58:28;;;;;;;4.40;2.60;;;;;;;18.60;69.60;99863.16;1629741;88;21069;-68
2022/06/05 09:01:10;;;;;;;4.40;2.70;;;;;;;18.62;68.77;99864.46;1617495;87;21620;-68
2022/06/05 09:03:58;;;;;;;3.22;2.92;;;;;;;18.62;69.13;99869.91;1617455;86;21066;-74
2022/06/05 09:06:38;;;;;;;4.62;4.00;;;;;;;18.67;68.99;99874.46;1609632;87;21359;-70
2022/06/05 09:09:25;;;;;;;3.50;3.12;;;;;;;18.70;68.04;99871.16;1639743;87;21152;-70
2022/06/05 09:12:00;;;;;;;5.42;2.67;;;;;;;18.73;67.71;99879.54;1587726;87;20950;-71
2022/06/05 09:14:40;;;;;;;4.08;3.67;;;;;;;18.79;67.56;99878.09;1632705;87;21528;-69
2022/06/05 09:17:15;;;;;;;4.37;3.42;;;;;;;18.83;67.16;99866.28;1610246;87;21113;-70
2022/06/05 09:19:51;;;;;;;3.22;2.62;;;;;;;18.87;66.31;99878.20;1553797;90;21790;-70
2022/06/05 09:22:42;;;;;;;2.95;2.75;;;;;;;18.91;66.73;99875.68;1616934;87;21096;-71
2022/06/05 09:25:27;;;;;;;4.25;2.12;;;;;;;18.97;66.30;99874.48;1601254;87;21166;-71
2022/06/05 09:28:05;;;;;;;2.08;1.87;;;;;;;19.07;65.76;99888.75;1594699;90;21115;-71
2022/06/05 09:30:55;;;;;;;2.70;1.92;;;;;;;19.18;64.50;99881.73;1567890;90;20973;-68
2022/06/05 09:33:30;;;;;;;3.22;2.60;;;;;;;19.31;64.08;99879.57;1608156;87;21083;-70
2022/06/05 09:35:59;;;;;;;2.60;2.30;;;;;;;19.41;63.44;99878.81;1627119;87;21095;-71
2022/06/05 09:38:50;;;;;;;2.15;1.95;;;;;;;19.53;62.78;99878.32;1601281;88;21534;-70
2022/06/05 09:41:53;;;;;;;2.45;2.10;;;;;;;19.64;62.60;99879.73;1623538;87;21038;-70
2022/06/05 09:44:40;;;;;;;3.92;2.95;;;;;;;19.75;61.14;99873.52;1588353;90;21149;-71
2022/06/05 09:47:15;;;;;;;7.28;2.52;;;;;;;19.81;61.13;99870.91;1620743;88;21771;-69
2022/06/05 09:49:46;;;;;;;5.22;2.75;;;;;;;19.86;61.15;99869.42;1619462;88;21058;-69
2022/06/05 09:52:18;;;;;;;8.25;5.40;;;;;;;19.90;61.05;99872.59;1620245;87;21105;-71
2022/06/05 09:55:10;;;;;;;4.05;3.05;;;;;;;19.96;61.17;99884.22;1596317;88;21040;-69
2022/06/05 10:00:53;;;;;;;2.87;2.35;;;;;;;20.09;60.59;99873.84;1600000;87;21696;-70
2022/06/05 10:03:28;;;;;;;2.95;2.75;;;;;;;20.14;59.95;99879.74;1594111;88;20985;-70
2022/06/05 10:06:41;;;;;;;3.77;2.20;;;;;;;20.15;59.98;99881.34;1606122;87;21085;-69
2022/06/05 10:09:22;;;;;;;2.55;2.37;;;;;;;20.16;59.43;99874.20;1615731;87;21106;-71
2022/06/05 10:12:10;;;;;;;3.87;2.42;;;;;;;20.18;57.10;99866.53;1582048;88;21058;-69
2022/06/05 10:14:57;;;;;;;2.15;1.90;;;;;;;20.20;56.91;99873.02;1623945;87;21179;-69
2022/06/05 10:17:38;;;;;;;5.22;2.75;;;;;;;20.21;57.52;99873.28;1620693;87;21138;-69
2022/06/05 10:20:16;;;;;;;3.47;2.35;;;;;;;20.20;58.91;99876.56;1600191;87;21591;-73
2022/06/05 10:23:22;;;;;;;2.30;2.10;;;;;;;20.25;59.50;99876.45;1589722;90;21082;-75
2022/06/05 10:26:15;;;;;;;2.08;1.95;;;;;;;20.30;57.34;99874.16;1615895;88;21039;-78
2022/06/05 10:28:45;;;;;;;2.77;2.17;;;;;;;20.33;56.73;99873.59;1616887;87;21387;-77
2022/06/05 10:31:25;;;;;;;5.67;2.12;;;;;;;20.37;56.79;99878.12;1612682;86;21166;-79
2022/06/05 10:34:18;;;;;;;2.65;2.40;;;;;;;20.41;56.79;99880.48;1587253;88;21119;-77
2022/06/05 10:37:40;;;;;;;2.27;1.90;;;;;;;20.44;56.45;99876.30;1634857;87;21582;-76
2022/06/05 10:40:42;;;;;;;2.75;2.33;;;;;;;20.48;57.10;99869.09;1634753;87;21061;-73
2022/06/05 10:43:26;;;;;;;4.33;2.83;;;;;;;20.54;59.21;99877.98;1642515;84;21116;-72
2022/06/05 10:46:01;;;;;;;;;;;;;;;20.54;59.21;99877.98;1654030;84;21002;-73
2022/06/05 10:49:01;;;;;;;2.40;2.30;;;;;;;20.58;58.58;99874.86;1662063;85;20207;-71
2022/06/05 10:51:39;;;;;;;2.85;2.65;;;;;;;20.58;58.58;99874.86;1662017;86;21020;-69
2022/06/05 10:54:51;;;;;;;6.25;3.60;;;;;;;20.57;57.94;99874.09;1662164;86;21018;-71
2022/06/05 10:57:28;;;;;;;2.70;2.33;;;;;;;20.61;58.26;99874.27;1662599;84;20994;-71
2022/06/05 11:00:07;;;;;;;4.65;2.67;;;;;;;20.65;58.27;99875.25;1662098;86;21018;-71
2022/06/05 11:02:44;;;;;;;2.60;2.40;;;;;;;20.64;58.63;99872.27;1668444;84;21023;-73
2022/06/05 11:05:29;;;;;;;2.75;2.55;;;;;;;20.62;58.54;99871.23;1572921;89;21108;-75
2022/06/05 11:08:07;;;;;;;5.87;2.15;;;;;;;20.64;58.67;99879.91;1589436;89;21192;-69
2022/06/05 11:14:02;;;;;;;2.67;2.47;;;;;;;20.65;58.65;99880.16;1661913;86;21084;-72
2022/06/05 11:16:54;;;;;;;5.17;3.27;;;;;;;20.72;58.63;99879.73;1654499;84;21246;-71
2022/06/05 11:19:54;;;;;;;2.55;2.35;;;;;;;20.80;58.57;99881.70;1634836;84;21123;-70
2022/06/05 11:22:20;;;;;;;5.87;4.65;;;;;;;20.82;58.31;99871.24;1639985;84;21065;-69
2022/06/05 11:24:53;;;;;;;3.33;3.02;;;;;;;20.82;58.28;99875.34;1635390;87;21918;-71
2022/06/05 11:27:48;;;;;;;3.47;3.17;;;;;;;20.84;58.35;99881.31;1660908;84;21037;-72
2022/06/05 11:30:55;;;;;;;4.17;3.62;;;;;;;20.86;58.34;99875.77;1670644;84;21113;-72
2022/06/05 11:33:25;;;;;;;2.90;2.60;;;;;;;20.99;58.53;99877.38;1666203;84;21422;-73
2022/06/05 11:36:12;;;;;;;4.85;2.50;;;;;;;21.14;58.29;99877.81;1670729;84;21140;-73
2022/06/05 11:39:07;;;;;;;3.25;2.98;;;;;;;21.18;58.15;99882.09;1635294;86;21249;-73
2022/06/05 11:41:46;;;;;;;3.52;2.55;;;;;;;21.30;57.88;99884.46;1647840;84;21590;-75
2022/06/05 11:44:39;;;;;;;3.52;3.22;;;;;;;21.42;57.61;99884.44;1662242;84;20923;-76
2022/06/05 11:47:11;;;;;;;4.83;2.92;;;;;;;21.50;57.25;99880.91;1663461;84;21530;-73
2022/06/05 11:50:22;;;;;;;4.63;4.23;;;;;;;21.53;56.75;99883.84;1640551;84;21019;-76
2022/06/05 11:53:15;;;;;;;2.50;2.30;;;;;;;21.56;55.83;99879.64;1677839;85;21173;-77
2022/06/05 11:56:12;;;;;;;2.80;2.60;;;;;;;21.61;55.94;99877.57;1673216;84;21010;-75
2022/06/05 11:59:24;;;;;;;2.70;2.42;;;;;;;21.62;55.13;99881.12;1661107;86;21033;-77
2022/06/05 12:02:22;;;;;;;2.77;2.58;;;;;;;21.62;54.56;99886.59;1660740;86;21551;-77
2022/06/05 12:05:31;;;;;;;4.05;3.65;;;;;;;21.67;55.24;99893.30;1673545;84;21022;-75
2022/06/05 12:08:07;;;;;;;4.87;2.17;;;;;;;21.76;55.36;99892.75;1688306;85;21178;-74
2022/06/05 12:10:39;;;;;;;3.17;2.45;;;;;;;21.97;53.91;99894.33;1639697;86;21041;-77
2022/06/05 12:13:21;;;;;;;2.58;2.22;;;;;;;22.13;53.77;99889.44;1638304;86;21014;-76
2022/06/05 12:16:01;;;;;;;3.05;2.83;;;;;;;22.25;53.28;99897.03;1658387;84;21014;-77
2022/06/05 12:18:32;;;;;;;4.80;3.30;;;;;;;22.40;52.73;99890.23;1593029;89;21039;-75
2022/06/05 12:21:28;;;;;;;2.62;2.22;;;;;;;22.71;50.94;99884.03;1574126;90;22231;-72
2022/06/05 12:24:10;;;;;;;2.42;2.27;;;;;;;22.96;49.43;99888.66;1587565;88;21015;-76
2022/06/05 12:27:02;;;;;;;2.23;2.13;;;;;;;23.10;48.58;99882.16;1657793;84;20934;-72
2022/06/05 12:29:42;;;;;;;2.30;2.10;;;;;;;23.14;48.67;99894.09;1629686;88;21094;-73